createdAt,value
2016-08-26T00:00:46.070Z,0
2016-08-26T00:01:46.070Z,0
2016-08-26T00:02:46.074Z,0
2016-08-26T00:03:46.074Z,0
2016-08-26T00:04:46.080Z,0
2016-08-26T00:05:46.076Z,0
2016-08-26T00:06:46.074Z,0
2016-08-26T00:07:46.078Z,0
2016-08-26T00:08:46.078Z,0
2016-08-26T00:09:46.078Z,0
2016-08-26T00:10:46.078Z,0
2016-08-26T00:11:46.082Z,0
2016-08-26T00:12:46.082Z,0
2016-08-26T00:13:46.082Z,0
2016-08-26T00:14:46.082Z,0
2016-08-26T00:15:46.082Z,0
2016-08-26T00:16:46.078Z,0
2016-08-26T00:17:46.087Z,0
2016-08-26T00:18:46.090Z,0
2016-08-26T00:19:46.095Z,0
2016-08-26T00:20:46.086Z,0
2016-08-26T00:21:46.094Z,0
2016-08-26T00:22:46.103Z,0
2016-08-26T00:23:46.086Z,0
2016-08-26T00:24:46.107Z,0
2016-08-26T00:25:46.091Z,0
2016-08-26T00:26:46.090Z,0
2016-08-26T00:27:46.091Z,0
2016-08-26T00:28:46.086Z,0
2016-08-26T00:29:46.103Z,0
2016-08-26T00:30:46.446Z,0
2016-08-26T00:31:45.379Z,0
2016-08-26T00:32:46.096Z,0
2016-08-26T00:33:46.099Z,0
2016-08-26T00:34:46.248Z,0
2016-08-26T00:35:46.103Z,0
2016-08-26T00:36:46.095Z,0
2016-08-26T00:37:46.100Z,0
2016-08-26T00:38:46.095Z,0
2016-08-26T00:39:46.099Z,0
2016-08-26T00:40:46.103Z,0
2016-08-26T00:41:46.104Z,0
2016-08-26T00:42:46.104Z,0
2016-08-26T00:43:46.096Z,0
2016-08-26T00:44:46.103Z,0
2016-08-26T00:45:46.104Z,0
2016-08-26T00:46:46.099Z,0
2016-08-26T00:47:46.108Z,0
2016-08-26T00:48:46.103Z,0
2016-08-26T00:49:46.107Z,0
2016-08-26T00:50:46.108Z,0
2016-08-26T00:51:46.112Z,0
2016-08-26T00:52:46.108Z,0
2016-08-26T00:53:46.108Z,0
2016-08-26T00:54:45.404Z,0
2016-08-26T00:55:46.116Z,0
2016-08-26T00:56:46.111Z,0
2016-08-26T00:57:46.113Z,0
2016-08-26T00:58:46.116Z,0
2016-08-26T00:59:46.112Z,0
2016-08-26T01:00:46.117Z,0
2016-08-26T01:01:46.109Z,0
2016-08-26T01:02:46.117Z,0
2016-08-26T01:03:46.125Z,0
2016-08-26T01:04:46.128Z,0
2016-08-26T01:05:46.121Z,0
2016-08-26T01:06:46.112Z,0
2016-08-26T01:07:46.112Z,0
2016-08-26T01:08:46.121Z,0
2016-08-26T01:09:46.125Z,0
2016-08-26T01:10:46.125Z,0
2016-08-26T01:11:46.120Z,0
2016-08-26T01:12:45.409Z,0
2016-08-26T01:13:46.121Z,0
2016-08-26T01:14:46.120Z,0
2016-08-26T01:15:46.121Z,0
2016-08-26T01:16:46.121Z,0
2016-08-26T01:17:46.125Z,0
2016-08-26T01:18:46.125Z,0
2016-08-26T01:19:46.133Z,0
2016-08-26T01:20:46.134Z,0
2016-08-26T01:21:46.117Z,0
2016-08-26T01:22:46.126Z,0
2016-08-26T01:23:46.130Z,0
2016-08-26T01:24:45.414Z,0
2016-08-26T01:25:46.129Z,0
2016-08-26T01:26:46.129Z,0
2016-08-26T01:27:46.131Z,0
2016-08-26T01:28:46.130Z,0
2016-08-26T01:29:46.130Z,0
2016-08-26T01:30:46.130Z,0
2016-08-26T01:31:46.129Z,0
2016-08-26T01:32:46.139Z,0
2016-08-26T01:33:46.133Z,0
2016-08-26T01:34:46.133Z,0
2016-08-26T01:35:46.137Z,0
2016-08-26T01:36:46.134Z,0
2016-08-26T01:37:46.133Z,0
2016-08-26T01:38:46.138Z,0
2016-08-26T01:39:46.137Z,0
2016-08-26T01:40:46.138Z,0
2016-08-26T01:41:46.133Z,0
2016-08-26T01:42:46.138Z,0
2016-08-26T01:43:46.137Z,0
2016-08-26T01:44:46.138Z,0
2016-08-26T01:45:46.138Z,0
2016-08-26T01:46:45.425Z,0
2016-08-26T01:47:46.145Z,0
2016-08-26T01:48:46.142Z,0
2016-08-26T01:49:46.137Z,0
2016-08-26T01:50:45.426Z,0
2016-08-26T01:51:46.142Z,0
2016-08-26T01:52:46.143Z,0
2016-08-26T01:53:46.146Z,0
2016-08-26T01:54:46.146Z,0
2016-08-26T01:55:45.438Z,0
2016-08-26T01:56:46.147Z,0
2016-08-26T01:57:46.146Z,0
2016-08-26T01:58:46.146Z,0
2016-08-26T01:59:45.430Z,0
2016-08-26T02:00:46.146Z,0
2016-08-26T02:01:46.146Z,0
2016-08-26T02:02:46.151Z,0
2016-08-26T02:03:46.150Z,0
2016-08-26T02:04:46.150Z,0
2016-08-26T02:05:46.152Z,0
2016-08-26T02:06:46.152Z,0
2016-08-26T02:07:46.147Z,0
2016-08-26T02:08:46.151Z,0
2016-08-26T02:09:46.152Z,0
2016-08-26T02:10:45.439Z,0
2016-08-26T02:11:46.152Z,0
2016-08-26T02:12:45.439Z,0
2016-08-26T02:13:45.441Z,0
2016-08-26T02:14:46.156Z,0
2016-08-26T02:15:46.156Z,0
2016-08-26T02:16:46.151Z,0
2016-08-26T02:17:46.157Z,0
2016-08-26T02:18:46.164Z,0
2016-08-26T02:19:46.176Z,0
2016-08-26T02:20:45.447Z,0
2016-08-26T02:21:46.164Z,0
2016-08-26T02:22:46.168Z,0
2016-08-26T02:23:46.160Z,0
2016-08-26T02:24:46.172Z,20
2016-08-26T02:25:46.169Z,16
2016-08-26T02:26:46.157Z,0
2016-08-26T02:27:45.444Z,0
2016-08-26T02:28:46.160Z,0
2016-08-26T02:29:46.168Z,0
2016-08-26T02:30:46.165Z,0
2016-08-26T02:31:46.161Z,0
2016-08-26T02:32:46.165Z,0
2016-08-26T02:33:46.165Z,0
2016-08-26T02:34:46.564Z,0
2016-08-26T02:35:46.165Z,0
2016-08-26T02:36:46.161Z,0
2016-08-26T02:37:46.177Z,0
2016-08-26T02:38:46.171Z,0
2016-08-26T02:39:46.176Z,0
2016-08-26T02:40:46.169Z,0
2016-08-26T02:41:46.165Z,0
2016-08-26T02:42:46.166Z,0
2016-08-26T02:43:45.452Z,0
2016-08-26T02:44:46.165Z,0
2016-08-26T02:45:46.170Z,0
2016-08-26T02:46:46.165Z,0
2016-08-26T02:47:45.457Z,0
2016-08-26T02:48:46.177Z,0
2016-08-26T02:49:46.173Z,0
2016-08-26T02:50:46.169Z,0
2016-08-26T02:51:46.170Z,0
2016-08-26T02:52:46.171Z,0
2016-08-26T02:53:46.174Z,0
2016-08-26T02:54:46.186Z,0
2016-08-26T02:55:46.174Z,0
2016-08-26T02:56:46.178Z,0
2016-08-26T02:57:46.174Z,0
2016-08-26T02:58:46.177Z,0
2016-08-26T02:59:46.181Z,16
2016-08-26T03:00:46.178Z,0
2016-08-26T03:01:46.170Z,0
2016-08-26T03:02:46.192Z,0
2016-08-26T03:03:46.178Z,0
2016-08-26T03:04:46.184Z,0
2016-08-26T03:05:46.175Z,0
2016-08-26T03:06:46.174Z,0
2016-08-26T03:07:46.174Z,0
2016-08-26T03:08:46.179Z,0
2016-08-26T03:09:46.185Z,0
2016-08-26T03:10:46.195Z,0
2016-08-26T03:11:46.182Z,0
2016-08-26T03:12:46.187Z,0
2016-08-26T03:13:46.183Z,0
2016-08-26T03:14:46.195Z,0
2016-08-26T03:15:46.179Z,0
2016-08-26T03:16:46.182Z,0
2016-08-26T03:17:46.183Z,0
2016-08-26T03:18:46.187Z,0
2016-08-26T03:19:46.191Z,0
2016-08-26T03:20:46.187Z,0
2016-08-26T03:21:46.179Z,0
2016-08-26T03:22:46.189Z,0
2016-08-26T03:23:46.187Z,0
2016-08-26T03:24:46.200Z,0
2016-08-26T03:25:46.199Z,0
2016-08-26T03:26:46.183Z,0
2016-08-26T03:27:46.199Z,0
2016-08-26T03:28:46.187Z,0
2016-08-26T03:29:46.191Z,0
2016-08-26T03:30:46.192Z,0
2016-08-26T03:31:46.184Z,0
2016-08-26T03:32:46.188Z,0
2016-08-26T03:33:45.475Z,0
2016-08-26T03:34:46.192Z,0
2016-08-26T03:35:46.192Z,0
2016-08-26T03:36:46.188Z,0
2016-08-26T03:37:46.196Z,0
2016-08-26T03:38:46.191Z,0
2016-08-26T03:39:46.199Z,0
2016-08-26T03:40:46.208Z,0
2016-08-26T03:41:46.196Z,0
2016-08-26T03:42:46.197Z,0
2016-08-26T03:43:46.192Z,0
2016-08-26T03:44:46.187Z,0
2016-08-26T03:45:45.481Z,0
2016-08-26T03:46:46.193Z,0
2016-08-26T03:47:46.197Z,0
2016-08-26T03:48:46.197Z,0
2016-08-26T03:49:46.196Z,0
2016-08-26T03:50:46.200Z,0
2016-08-26T03:51:46.197Z,0
2016-08-26T03:52:46.200Z,0
2016-08-26T03:53:46.200Z,0
2016-08-26T03:54:46.196Z,0
2016-08-26T03:55:46.201Z,0
2016-08-26T03:56:46.200Z,0
2016-08-26T03:57:46.201Z,0
2016-08-26T03:58:46.201Z,0
2016-08-26T03:59:46.201Z,4
2016-08-26T04:00:46.201Z,4
2016-08-26T04:01:46.205Z,0
2016-08-26T04:02:46.198Z,16
2016-08-26T04:03:46.201Z,20
2016-08-26T04:04:46.205Z,4
2016-08-26T04:05:46.205Z,4
2016-08-26T04:06:46.200Z,4
2016-08-26T04:07:46.225Z,4
2016-08-26T04:08:46.207Z,8
2016-08-26T04:09:46.205Z,8
2016-08-26T04:10:45.489Z,12
2016-08-26T04:11:46.205Z,12
2016-08-26T04:12:45.485Z,16
2016-08-26T04:13:46.213Z,16
2016-08-26T04:14:46.201Z,20
2016-08-26T04:15:46.213Z,24
2016-08-26T04:16:46.208Z,28
2016-08-26T04:17:46.204Z,32
2016-08-26T04:18:46.213Z,40
2016-08-26T04:19:46.213Z,44
2016-08-26T04:20:46.209Z,52
2016-08-26T04:21:46.209Z,60
2016-08-26T04:22:45.485Z,80
2016-08-26T04:23:46.219Z,76
2016-08-26T04:24:46.209Z,84
2016-08-26T04:25:46.222Z,92
2016-08-26T04:26:46.210Z,104
2016-08-26T04:27:45.495Z,116
2016-08-26T04:28:46.209Z,124
2016-08-26T04:29:46.209Z,136
2016-08-26T04:30:46.209Z,148
2016-08-26T04:31:46.214Z,164
2016-08-26T04:32:46.214Z,180
2016-08-26T04:33:46.214Z,208
2016-08-26T04:34:46.414Z,228
2016-08-26T04:35:46.226Z,228
2016-08-26T04:36:46.214Z,248
2016-08-26T04:37:46.214Z,268
2016-08-26T04:38:46.214Z,288
2016-08-26T04:39:46.214Z,312
2016-08-26T04:40:46.209Z,336
2016-08-26T04:41:46.218Z,360
2016-08-26T04:42:46.226Z,384
2016-08-26T04:43:46.222Z,412
2016-08-26T04:44:46.218Z,440
2016-08-26T04:45:46.219Z,472
2016-08-26T04:46:46.218Z,504
2016-08-26T04:47:46.231Z,540
2016-08-26T04:48:46.215Z,576
2016-08-26T04:49:46.223Z,616
2016-08-26T04:50:46.216Z,664
2016-08-26T04:51:46.218Z,716
2016-08-26T04:52:46.219Z,772
2016-08-26T04:53:45.510Z,824
2016-08-26T04:54:46.215Z,884
2016-08-26T04:55:46.222Z,944
2016-08-26T04:56:46.215Z,1012
2016-08-26T04:57:46.218Z,1084
2016-08-26T04:58:46.220Z,1156
2016-08-26T04:59:46.227Z,1228
2016-08-26T05:00:46.231Z,1304
2016-08-26T05:01:46.219Z,1384
2016-08-26T05:02:46.223Z,1472
2016-08-26T05:03:46.226Z,1560
2016-08-26T05:04:46.226Z,1664
2016-08-26T05:05:46.227Z,1772
2016-08-26T05:06:45.520Z,1920
2016-08-26T05:07:46.227Z,2208
2016-08-26T05:08:46.227Z,2448
2016-08-26T05:09:45.515Z,2596
2016-08-26T05:10:46.227Z,2740
2016-08-26T05:11:46.231Z,2872
2016-08-26T05:12:46.232Z,3028
2016-08-26T05:13:46.248Z,3200
2016-08-26T05:14:46.232Z,3404
2016-08-26T05:15:46.232Z,3584
2016-08-26T05:16:46.236Z,3668
2016-08-26T05:17:46.236Z,3712
2016-08-26T05:18:46.236Z,3976
2016-08-26T05:19:46.235Z,4200
2016-08-26T05:20:46.235Z,4324
2016-08-26T05:21:46.236Z,4576
2016-08-26T05:22:46.248Z,4732
2016-08-26T05:23:46.240Z,4888
2016-08-26T05:24:46.243Z,5020
2016-08-26T05:25:46.245Z,5304
2016-08-26T05:26:46.264Z,5432
2016-08-26T05:27:46.248Z,5744
2016-08-26T05:28:46.243Z,5996
2016-08-26T05:29:46.251Z,6172
2016-08-26T05:30:46.252Z,6452
2016-08-26T05:31:46.252Z,6852
2016-08-26T05:32:46.263Z,7044
2016-08-26T05:33:46.260Z,6968
2016-08-26T05:34:46.268Z,7368
2016-08-26T05:35:46.268Z,7616
2016-08-26T05:36:46.264Z,7800
2016-08-26T05:37:46.272Z,8044
2016-08-26T05:38:46.268Z,8544
2016-08-26T05:39:46.269Z,8308
2016-08-26T05:40:46.272Z,8484
2016-08-26T05:41:46.284Z,9044
2016-08-26T05:42:46.276Z,9276
2016-08-26T05:43:46.275Z,9584
2016-08-26T05:44:46.281Z,9968
2016-08-26T05:45:46.280Z,10032
2016-08-26T05:46:46.284Z,10416
2016-08-26T05:47:46.289Z,10704
2016-08-26T05:48:45.585Z,10880
2016-08-26T05:49:46.292Z,11144
2016-08-26T05:50:46.296Z,11836
2016-08-26T05:51:46.296Z,12384
2016-08-26T05:52:46.301Z,12720
2016-08-26T05:53:46.305Z,12748
2016-08-26T05:54:46.308Z,13028
2016-08-26T05:55:46.313Z,12784
2016-08-26T05:56:46.317Z,12924
2016-08-26T05:57:46.312Z,13528
2016-08-26T05:58:45.605Z,14548
2016-08-26T05:59:46.325Z,15040
2016-08-26T06:00:46.328Z,12296
2016-08-26T06:01:45.621Z,13600
2016-08-26T06:02:46.337Z,8524
2016-08-26T06:03:46.337Z,13744
2016-08-26T06:04:46.341Z,9184
2016-08-26T06:05:46.345Z,11712
2016-08-26T06:06:46.356Z,13784
2016-08-26T06:07:46.353Z,16512
2016-08-26T06:08:44.929Z,16832
2016-08-26T06:09:46.365Z,17184
2016-08-26T06:10:46.365Z,17696
2016-08-26T06:11:46.369Z,17824
2016-08-26T06:12:46.378Z,18400
2016-08-26T06:13:46.377Z,19040
2016-08-26T06:14:46.386Z,19360
2016-08-26T06:15:46.381Z,19264
2016-08-26T06:16:46.389Z,17376
2016-08-26T06:17:45.681Z,15552
2016-08-26T06:18:46.397Z,16768
2016-08-26T06:19:46.401Z,14320
2016-08-26T06:20:46.405Z,11080
2016-08-26T06:21:46.409Z,12264
2016-08-26T06:22:46.416Z,14768
2016-08-26T06:23:46.425Z,14016
2016-08-26T06:24:46.421Z,16896
2016-08-26T06:25:46.437Z,18816
2016-08-26T06:26:46.438Z,16328
2016-08-26T06:27:46.438Z,17856
2016-08-26T06:28:46.441Z,17728
2016-08-26T06:29:46.450Z,21024
2016-08-26T06:30:46.453Z,21312
2016-08-26T06:31:46.462Z,22944
2016-08-26T06:32:46.458Z,23168
2016-08-26T06:33:46.462Z,21120
2016-08-26T06:34:46.471Z,18912
2016-08-26T06:35:45.758Z,16644
2016-08-26T06:36:46.491Z,18528
2016-08-26T06:37:46.482Z,22080
2016-08-26T06:38:46.491Z,24128
2016-08-26T06:39:46.493Z,24768
2016-08-26T06:40:46.497Z,25984
2016-08-26T06:41:46.497Z,26272
2016-08-26T06:42:46.518Z,26464
2016-08-26T06:43:46.509Z,26688
2016-08-26T06:44:46.514Z,27360
2016-08-26T06:45:46.521Z,28480
2016-08-26T06:46:46.531Z,28128
2016-08-26T06:47:46.549Z,27904
2016-08-26T06:48:46.542Z,28736
2016-08-26T06:49:46.561Z,29152
2016-08-26T06:50:46.563Z,29440
2016-08-26T06:51:45.842Z,29984
2016-08-26T06:52:46.563Z,29888
2016-08-26T06:53:45.853Z,30336
2016-08-26T06:54:46.582Z,30304
2016-08-26T06:55:46.582Z,28896
2016-08-26T06:56:46.502Z,28448
2016-08-26T06:57:46.506Z,31776
2016-08-26T06:58:46.518Z,30496
2016-08-26T06:59:46.514Z,27872
2016-08-26T07:00:46.524Z,29088
2016-08-26T07:01:46.530Z,29376
2016-08-26T07:02:46.535Z,27904
2016-08-26T07:03:46.547Z,28640
2016-08-26T07:04:46.551Z,27776
2016-08-26T07:05:46.554Z,26336
2016-08-26T07:06:46.563Z,24288
2016-08-26T07:07:46.567Z,22496
2016-08-26T07:08:46.575Z,23040
2016-08-26T07:09:46.583Z,20864
2016-08-26T07:10:46.590Z,19936
2016-08-26T07:11:46.598Z,20640
2016-08-26T07:12:46.603Z,19872
2016-08-26T07:13:46.606Z,20704
2016-08-26T07:14:46.615Z,19936
2016-08-26T07:15:46.624Z,17568
2016-08-26T07:16:46.627Z,17408
2016-08-26T07:17:46.635Z,17632
2016-08-26T07:18:46.642Z,20192
2016-08-26T07:19:46.655Z,18144
2016-08-26T07:20:46.654Z,17248
2016-08-26T07:21:46.662Z,23104
2016-08-26T07:22:46.671Z,27840
2016-08-26T07:23:46.678Z,31360
2016-08-26T07:24:46.687Z,31488
2016-08-26T07:25:46.691Z,29312
2016-08-26T07:26:46.698Z,30016
2016-08-26T07:27:46.707Z,30496
2016-08-26T07:28:46.715Z,30304
2016-08-26T07:29:46.727Z,32736
2016-08-26T07:30:46.727Z,31936
2016-08-26T07:31:46.735Z,31840
2016-08-26T07:32:46.743Z,31296
2016-08-26T07:33:46.755Z,29632
2016-08-26T07:34:46.870Z,31648
2016-08-26T07:35:46.763Z,28832
2016-08-26T07:36:46.771Z,29760
2016-08-26T07:37:46.779Z,31872
2016-08-26T07:38:47.239Z,32224
2016-08-26T07:39:46.795Z,30592
2016-08-26T07:40:46.803Z,30144
2016-08-26T07:41:46.811Z,32096
2016-08-26T07:42:46.819Z,33600
2016-08-26T07:43:46.823Z,33760
2016-08-26T07:44:46.837Z,33312
2016-08-26T07:45:46.843Z,34880
2016-08-26T07:46:46.863Z,35744
2016-08-26T07:47:46.868Z,33664
2016-08-26T07:48:46.863Z,33344
2016-08-26T07:49:46.871Z,32416
2016-08-26T07:50:46.879Z,33248
2016-08-26T07:51:46.200Z,36160
2016-08-26T07:52:46.895Z,35904
2016-08-26T07:53:46.903Z,33920
2016-08-26T07:54:46.911Z,34304
2016-08-26T07:55:46.920Z,35168
2016-08-26T07:56:46.927Z,36224
2016-08-26T07:57:45.528Z,36992
2016-08-26T07:58:46.947Z,34688
2016-08-26T07:59:46.951Z,36288
2016-08-26T08:00:46.960Z,27104
2016-08-26T08:01:46.968Z,13528
2016-08-26T08:02:46.978Z,8924
2016-08-26T08:03:46.984Z,9088
2016-08-26T08:04:46.991Z,10100
2016-08-26T08:05:47.008Z,9392
2016-08-26T08:06:47.024Z,8244
2016-08-26T08:07:47.017Z,7796
2016-08-26T08:08:47.024Z,7428
2016-08-26T08:09:47.032Z,7188
2016-08-26T08:10:47.039Z,6972
2016-08-26T08:11:47.060Z,6796
2016-08-26T08:12:47.056Z,6744
2016-08-26T08:13:47.068Z,6616
2016-08-26T08:14:47.075Z,6416
2016-08-26T08:15:47.084Z,6284
2016-08-26T08:16:47.096Z,6192
2016-08-26T08:17:47.108Z,6124
2016-08-26T08:18:47.113Z,6040
2016-08-26T08:19:47.116Z,6020
2016-08-26T08:20:47.125Z,5956
2016-08-26T08:21:47.133Z,5904
2016-08-26T08:22:47.144Z,5792
2016-08-26T08:23:47.148Z,5768
2016-08-26T08:24:47.157Z,5756
2016-08-26T08:25:47.172Z,5784
2016-08-26T08:26:47.172Z,5820
2016-08-26T08:27:47.192Z,5900
2016-08-26T08:28:47.188Z,5852
2016-08-26T08:29:47.196Z,5776
2016-08-26T08:30:47.417Z,5732
2016-08-26T08:31:47.215Z,5652
2016-08-26T08:32:47.221Z,5544
2016-08-26T08:33:46.532Z,5400
2016-08-26T08:34:47.233Z,5332
2016-08-26T08:35:47.249Z,5292
2016-08-26T08:36:47.261Z,5252
2016-08-26T08:37:47.257Z,5252
2016-08-26T08:38:46.569Z,5248
2016-08-26T08:39:47.273Z,5200
2016-08-26T08:40:47.281Z,5120
2016-08-26T08:41:47.293Z,5036
2016-08-26T08:42:47.297Z,4920
2016-08-26T08:43:47.305Z,4860
2016-08-26T08:44:47.309Z,4824
2016-08-26T08:45:47.317Z,4804
2016-08-26T08:46:47.325Z,4772
2016-08-26T08:47:47.333Z,4712
2016-08-26T08:48:47.340Z,4668
2016-08-26T08:49:47.353Z,4656
2016-08-26T08:50:47.364Z,4604
2016-08-26T08:51:47.360Z,4572
2016-08-26T08:52:47.373Z,4592
2016-08-26T08:53:47.377Z,4568
2016-08-26T08:54:47.388Z,4536
2016-08-26T08:55:47.393Z,4500
2016-08-26T08:56:46.692Z,4480
2016-08-26T08:57:47.409Z,4448
2016-08-26T08:58:47.414Z,4440
2016-08-26T08:59:47.418Z,4440
2016-08-26T09:00:47.428Z,4404
2016-08-26T09:01:47.433Z,4356
2016-08-26T09:02:47.453Z,4308
2016-08-26T09:03:47.445Z,4264
2016-08-26T09:04:47.454Z,4224
2016-08-26T09:05:47.462Z,4184
2016-08-26T09:06:47.460Z,4184
2016-08-26T09:07:47.473Z,4156
2016-08-26T09:08:47.482Z,4168
2016-08-26T09:09:47.485Z,4156
2016-08-26T09:10:47.510Z,4116
2016-08-26T09:11:47.504Z,4072
2016-08-26T09:12:47.505Z,4052
2016-08-26T09:13:47.514Z,4020
2016-08-26T09:14:47.518Z,3996
2016-08-26T09:15:47.525Z,3944
2016-08-26T09:16:47.533Z,3908
2016-08-26T09:17:47.543Z,3884
2016-08-26T09:18:47.546Z,3860
2016-08-26T09:19:47.550Z,3816
2016-08-26T09:20:47.557Z,3780
2016-08-26T09:21:47.566Z,3748
2016-08-26T09:22:47.570Z,3732
2016-08-26T09:23:47.578Z,3728
2016-08-26T09:24:47.581Z,3728
2016-08-26T09:25:46.898Z,3720
2016-08-26T09:26:47.594Z,3692
2016-08-26T09:27:47.602Z,3652
2016-08-26T09:28:47.607Z,3624
2016-08-26T09:29:47.618Z,3612
2016-08-26T09:30:47.622Z,3592
2016-08-26T09:31:47.630Z,3568
2016-08-26T09:32:47.627Z,3584
2016-08-26T09:33:47.635Z,3580
2016-08-26T09:34:47.739Z,3572
2016-08-26T09:35:47.647Z,3556
2016-08-26T09:36:47.651Z,3540
2016-08-26T09:37:47.659Z,3512
2016-08-26T09:38:47.674Z,3516
